Corpus Christi, TX

12:14 AM CDT on September 30, 2016 (GMT -0500)
Aransas Cliffs | | Change Station

Elev 46 ft 27.75 °N, 97.38 °W | Updated 10 minutes ago

Partly Cloudy
Partly Cloudy
77.3 °F
Feels Like 79 °F
N
10.5
Wind Variable Wind from NNE
Gusts 19.6 mph

Today
High -- | Low -- °F
--% Chance of Precip.
Yesterday
High -- | Low -- °F
Precip. -- in
Pressure 30.13 in
Visibility 10.0 miles
Clouds Few 25000 ft
Heat Index 79 °F
Dew Point 63 °F
Humidity 62%
Rainfall 0.00 in
Snow Depth Not available.
7:22 AM 7:16 PM
Waning Crescent, 1% visible
METAR KCRP 300451Z 04011KT 10SM FEW250 25/15 A3014 RMK AO2 SLP203 T02500150
Pressure 30.13 in
Visibility 10.0 miles
Clouds Few 25000 ft
Heat Index 79 °F
Dew Point 63 °F
Humidity 62%
Rainfall 0.00 in
Snow Depth Not available.
7:22 AM 7:16 PM
Waning Crescent, 1% visible
METAR KCRP 300451Z 04011KT 10SM FEW250 25/15 A3014 RMK AO2 SLP203 T02500150

10-Day Weather Forecast

Almanac

Astronomy

Sep. 30, 2016 Rise Set
Actual Time
Civil Twilight
Nautical Twilight
Astronomical Twilight
Moon
Length of Visible Light
Length of Day
Tomorrow will be .
, % of the Moon is Illuminated

Today's Extremes

State Highs State Lows

Community

WunderPhotos

Upload Photos

1,942,665 photos uploaded!

WunderBlog® & News

Nearby

Air Quality

  Air Quality AQ Index Pollutant
Not available.

Snow Depth

Station Depth Elevation

Earthquake Activity

City Distance Mag. Time & Date
Minimum magnitude displayed is 2.5.

Coastal Water Temperatures

Place Temperature

Stations

Nearby Weather Stations

Station Location Temp. Windchill Dew Point Humidity Wind Precip. Elev Updated Type
                   

Watches & Warnings

There are currently no watches in effect.